Terminal Aerodrome Forecast
Issued by NWS

Home | Current Version | Previous Version | Text Only | Print | Product List | Glossary On
Versions: 1 2 3 4 5 6 7 8 9 10 11 12
010
FTUS46 KSTO 181122
TAFSCK
TAF
KSCK 181122Z 1812/1912 34005KT P6SM FEW250
     FM181800 29009KT P6SM SKC
     FM190900 36004KT P6SM SKC=

USA.gov is the U.S. government's official web portal to all federal, state and local government web resources and services.